Time;durP1;ratioP1;P1;durP2;ratioP2;P2;SDS_P1;SDS_P2;PMS_P1;PMS_P2;Temp;Humidity;BMP_temperature;BMP_pressure;BME280_temperature;BME280_humidity;BME280_pressure;Samples;Min_cycle;Max_cycle;Signal;HPM_P1;HPM_P2
2022/08/31 00:05:27;;;;;;;11.63;3.80;;;;;;;;;;4945991;28;20285;-77
2022/08/31 00:07:55;;;;;;;6.43;3.17;;;;;;;;;;4949711;28;20218;-76
2022/08/31 00:10:26;;;;;;;5.47;3.40;;;;;;;;;;4947739;28;20209;-75
2022/08/31 00:12:54;;;;;;;12.47;3.83;;;;;;;;;;4952516;28;20206;-75
2022/08/31 00:15:22;;;;;;;7.47;3.37;;;;;;;;;;4949007;28;20576;-77
2022/08/31 00:17:50;;;;;;;5.87;3.67;;;;;;;;;;4949649;28;20236;-77
2022/08/31 00:20:18;;;;;;;7.60;3.63;;;;;;;;;;4945686;28;20576;-77
2022/08/31 00:22:45;;;;;;;5.97;3.57;;;;;;;;;;4948850;28;20210;-77
2022/08/31 00:25:13;;;;;;;7.23;3.27;;;;;;;;;;4947104;28;20263;-77
2022/08/31 00:27:41;;;;;;;10.27;3.70;;;;;;;;;;4947010;28;20222;-76
2022/08/31 00:30:11;;;;;;;7.50;3.70;;;;;;;;;;4945674;28;20222;-76
2022/08/31 00:32:38;;;;;;;9.10;3.13;;;;;;;;;;4947592;28;20214;-76
2022/08/31 00:35:06;;;;;;;6.17;3.73;;;;;;;;;;4948486;28;20206;-77
2022/08/31 00:37:33;;;;;;;8.23;3.23;;;;;;;;;;4945845;28;20226;-77
2022/08/31 00:40:00;;;;;;;9.67;3.30;;;;;;;;;;4944601;28;20206;-76
2022/08/31 00:42:27;;;;;;;5.37;3.53;;;;;;;;;;4946820;28;20218;-76
2022/08/31 00:44:56;;;;;;;9.53;3.33;;;;;;;;;;4945381;28;20213;-77
2022/08/31 00:47:23;;;;;;;8.33;3.33;;;;;;;;;;4946027;28;20234;-77
2022/08/31 00:49:50;;;;;;;6.73;3.40;;;;;;;;;;4946119;28;20208;-76
2022/08/31 00:52:20;;;;;;;7.70;3.60;;;;;;;;;;4944169;28;20205;-76
2022/08/31 00:54:48;;;;;;;4.53;3.20;;;;;;;;;;4946385;28;20207;-76
2022/08/31 00:57:16;;;;;;;8.37;3.50;;;;;;;;;;4944370;28;20227;-76
2022/08/31 00:59:44;;;;;;;6.57;3.40;;;;;;;;;;4950213;28;20210;-77
2022/08/31 01:02:13;;;;;;;4.57;3.17;;;;;;;;;;4946025;28;20261;-77
2022/08/31 01:04:40;;;;;;;9.90;3.60;;;;;;;;;;4945446;28;20285;-76
2022/08/31 01:07:08;;;;;;;7.10;3.13;;;;;;;;;;4946231;28;20233;-79
2022/08/31 01:09:36;;;;;;;7.00;3.77;;;;;;;;;;4946476;28;20325;-76
2022/08/31 01:12:05;;;;;;;8.80;3.57;;;;;;;;;;4943668;28;20210;-75
2022/08/31 01:14:33;;;;;;;8.53;3.50;;;;;;;;;;4942540;28;20235;-76
2022/08/31 01:17:00;;;;;;;4.90;3.40;;;;;;;;;;4947362;28;20312;-76
2022/08/31 01:19:31;;;;;;;8.47;3.97;;;;;;;;;;4944959;28;20214;-76
2022/08/31 01:22:02;;;;;;;6.40;3.53;;;;;;;;;;4947011;28;20226;-76
2022/08/31 01:24:31;;;;;;;6.90;3.57;;;;;;;;;;4940635;28;20584;-76
2022/08/31 01:27:02;;;;;;;6.90;3.67;;;;;;;;;;4947189;28;20332;-76
2022/08/31 01:29:29;;;;;;;7.97;3.63;;;;;;;;;;4946460;28;20266;-76
2022/08/31 01:31:56;;;;;;;10.63;3.80;;;;;;;;;;4947086;28;20919;-77
2022/08/31 01:34:26;;;;;;;6.17;3.80;;;;;;;;;;4943775;28;20212;-75
2022/08/31 01:36:54;;;;;;;5.77;3.30;;;;;;;;;;4941633;28;20305;-77
2022/08/31 01:39:21;;;;;;;7.67;3.73;;;;;;;;;;4943585;28;20265;-76
2022/08/31 01:41:49;;;;;;;7.53;3.60;;;;;;;;;;4949043;28;20230;-76
2022/08/31 01:44:18;;;;;;;6.87;3.60;;;;;;;;;;4948813;28;20211;-76
2022/08/31 01:46:46;;;;;;;6.10;3.20;;;;;;;;;;4943999;28;20235;-76
2022/08/31 01:49:14;;;;;;;6.83;3.50;;;;;;;;;;4945998;28;20250;-77
2022/08/31 01:51:41;;;;;;;5.80;3.43;;;;;;;;;;4945302;28;20203;-77
2022/08/31 01:54:08;;;;;;;9.30;3.80;;;;;;;;;;4949234;28;20654;-77
2022/08/31 01:56:37;;;;;;;7.67;3.60;;;;;;;;;;4947270;28;20230;-77
2022/08/31 01:59:07;;;;;;;8.20;3.77;;;;;;;;;;4944932;28;20203;-77
2022/08/31 02:01:35;;;;;;;8.47;3.83;;;;;;;;;;4946789;28;20591;-77
2022/08/31 02:04:03;;;;;;;5.20;3.10;;;;;;;;;;4948087;28;20213;-77
2022/08/31 02:06:30;;;;;;;9.47;4.00;;;;;;;;;;4946398;28;20222;-76
2022/08/31 02:08:57;;;;;;;7.37;3.63;;;;;;;;;;4945455;28;20753;-76
2022/08/31 02:11:25;;;;;;;6.70;3.93;;;;;;;;;;4947947;28;20199;-77
2022/08/31 02:13:52;;;;;;;10.27;4.30;;;;;;;;;;4946390;28;20202;-77
2022/08/31 02:16:20;;;;;;;6.97;3.50;;;;;;;;;;4949812;28;20218;-76
2022/08/31 02:18:47;;;;;;;7.53;3.90;;;;;;;;;;4951936;28;20206;-77
2022/08/31 02:21:15;;;;;;;5.43;3.90;;;;;;;;;;4949209;28;20226;-76
2022/08/31 02:23:42;;;;;;;8.10;4.13;;;;;;;;;;4948472;28;20289;-76
2022/08/31 02:26:10;;;;;;;6.07;3.67;;;;;;;;;;4947592;28;20232;-76
2022/08/31 02:28:37;;;;;;;8.00;3.93;;;;;;;;;;4946657;28;20214;-77
2022/08/31 02:31:05;;;;;;;7.17;4.47;;;;;;;;;;4946120;28;20198;-76
2022/08/31 02:33:33;;;;;;;8.23;4.23;;;;;;;;;;4951738;28;20240;-77
2022/08/31 02:36:00;;;;;;;7.10;3.70;;;;;;;;;;4947971;28;20230;-77
2022/08/31 02:38:28;;;;;;;7.33;3.67;;;;;;;;;;4948549;28;20230;-77
2022/08/31 02:40:55;;;;;;;7.73;3.87;;;;;;;;;;4946599;28;20206;-76
2022/08/31 02:43:22;;;;;;;6.13;3.70;;;;;;;;;;4950160;28;20297;-76
2022/08/31 02:45:49;;;;;;;8.43;3.47;;;;;;;;;;4948120;28;21968;-76
2022/08/31 02:48:16;;;;;;;8.90;3.97;;;;;;;;;;4947164;28;20289;-76
2022/08/31 02:50:46;;;;;;;5.93;3.53;;;;;;;;;;4947681;28;20211;-76
2022/08/31 02:53:14;;;;;;;6.47;3.53;;;;;;;;;;4948144;28;20292;-75
2022/08/31 02:55:42;;;;;;;4.87;3.20;;;;;;;;;;4950258;28;20638;-75
2022/08/31 02:58:10;;;;;;;7.90;3.03;;;;;;;;;;4954866;28;20226;-74
2022/08/31 03:00:38;;;;;;;4.83;3.50;;;;;;;;;;4952138;28;20218;-76
2022/08/31 03:03:05;;;;;;;6.30;3.83;;;;;;;;;;4951230;28;20226;-76
2022/08/31 03:05:33;;;;;;;6.93;3.80;;;;;;;;;;4948991;28;20634;-76
2022/08/31 03:08:01;;;;;;;6.80;3.57;;;;;;;;;;4947866;28;20208;-76
2022/08/31 03:10:28;;;;;;;6.40;3.77;;;;;;;;;;4947602;28;20210;-77
2022/08/31 03:12:56;;;;;;;7.23;3.90;;;;;;;;;;4946972;28;20291;-76
2022/08/31 03:15:24;;;;;;;5.57;3.73;;;;;;;;;;4944479;28;20212;-76
2022/08/31 03:17:51;;;;;;;5.77;3.80;;;;;;;;;;4948682;28;20265;-77
2022/08/31 03:20:19;;;;;;;6.80;3.80;;;;;;;;;;4945322;28;20230;-76
2022/08/31 03:22:46;;;;;;;6.50;3.83;;;;;;;;;;4946369;28;20597;-76
2022/08/31 03:25:16;;;;;;;6.63;3.53;;;;;;;;;;4946277;28;20302;-76
2022/08/31 03:27:43;;;;;;;6.60;3.53;;;;;;;;;;4949250;28;20277;-76
2022/08/31 03:30:12;;;;;;;7.10;3.73;;;;;;;;;;4948587;28;20209;-76
2022/08/31 03:32:39;;;;;;;5.87;3.60;;;;;;;;;;4949078;28;20213;-77
2022/08/31 03:35:07;;;;;;;7.67;3.70;;;;;;;;;;4948036;28;20210;-76
2022/08/31 03:37:34;;;;;;;8.53;3.63;;;;;;;;;;4944234;28;20246;-76
2022/08/31 03:40:01;;;;;;;5.10;3.70;;;;;;;;;;4949197;28;20214;-76
2022/08/31 03:42:29;;;;;;;6.50;3.87;;;;;;;;;;4945725;28;20230;-76
2022/08/31 03:44:57;;;;;;;9.47;4.40;;;;;;;;;;4947361;28;20203;-76
2022/08/31 03:47:24;;;;;;;7.67;4.03;;;;;;;;;;4947519;28;20233;-76
2022/08/31 03:49:53;;;;;;;7.17;4.80;;;;;;;;;;4947872;28;20232;-75
2022/08/31 03:52:22;;;;;;;7.13;4.23;;;;;;;;;;4946267;28;20634;-76
2022/08/31 03:54:49;;;;;;;10.17;4.50;;;;;;;;;;4948724;28;20294;-76
2022/08/31 03:57:20;;;;;;;9.20;4.40;;;;;;;;;;4946640;28;20226;-76
2022/08/31 03:59:56;;;;;;;6.10;4.37;;;;;;;;;;4950024;28;20684;-76
2022/08/31 04:02:28;;;;;;;10.87;4.40;;;;;;;;;;4947581;28;20316;-75
2022/08/31 04:04:57;;;;;;;6.83;4.60;;;;;;;;;;4951704;28;20202;-76
2022/08/31 04:07:24;;;;;;;9.07;5.00;;;;;;;;;;4946881;28;20277;-76
2022/08/31 04:09:51;;;;;;;7.37;4.30;;;;;;;;;;4945826;28;20206;-75
2022/08/31 04:12:19;;;;;;;9.47;5.07;;;;;;;;;;4945984;28;20293;-76
2022/08/31 04:14:46;;;;;;;9.53;5.17;;;;;;;;;;4944247;28;20697;-76
2022/08/31 04:17:18;;;;;;;8.03;5.27;;;;;;;;;;4948792;28;20595;-76
2022/08/31 04:19:45;;;;;;;7.50;5.20;;;;;;;;;;4947053;28;20209;-76
2022/08/31 04:22:21;;;;;;;10.90;5.37;;;;;;;;;;4947852;28;20310;-75
2022/08/31 04:24:55;;;;;;;6.60;4.77;;;;;;;;;;4947788;28;20309;-76
2022/08/31 04:27:22;;;;;;;8.33;5.07;;;;;;;;;;4943538;28;20233;-76
2022/08/31 04:29:49;;;;;;;7.63;5.00;;;;;;;;;;4947312;28;20708;-76
2022/08/31 04:32:18;;;;;;;7.67;5.17;;;;;;;;;;4946843;28;20567;-75
2022/08/31 04:34:45;;;;;;;11.73;5.50;;;;;;;;;;4949170;28;20206;-75
2022/08/31 04:37:13;;;;;;;7.77;5.50;;;;;;;;;;4943692;28;20219;-76
2022/08/31 04:39:41;;;;;;;12.37;4.97;;;;;;;;;;4945037;28;20258;-76
2022/08/31 04:42:10;;;;;;;10.90;5.33;;;;;;;;;;4944197;28;20223;-76
2022/08/31 04:44:39;;;;;;;8.77;5.47;;;;;;;;;;4949932;28;20657;-76
2022/08/31 04:47:07;;;;;;;13.83;6.10;;;;;;;;;;4946983;28;20676;-75
2022/08/31 04:49:35;;;;;;;10.03;6.00;;;;;;;;;;4947958;28;20225;-76
2022/08/31 04:52:02;;;;;;;9.67;6.23;;;;;;;;;;4944126;28;20576;-76
2022/08/31 04:54:29;;;;;;;14.43;6.43;;;;;;;;;;4941698;28;20208;-76
2022/08/31 04:56:58;;;;;;;14.17;7.27;;;;;;;;;;4945681;28;20442;-76
2022/08/31 04:59:26;;;;;;;11.90;6.40;;;;;;;;;;4946455;28;20294;-76
2022/08/31 05:01:54;;;;;;;11.13;6.87;;;;;;;;;;4944071;28;20222;-76
2022/08/31 05:04:23;;;;;;;17.87;7.67;;;;;;;;;;4946324;28;20203;-75
2022/08/31 05:06:52;;;;;;;9.70;7.57;;;;;;;;;;4944125;28;20238;-76
2022/08/31 05:09:21;;;;;;;14.83;7.57;;;;;;;;;;4946709;28;20202;-76
2022/08/31 05:11:49;;;;;;;12.83;7.50;;;;;;;;;;4934911;28;20232;-76
2022/08/31 05:14:20;;;;;;;12.37;7.53;;;;;;;;;;4941610;28;20206;-76
2022/08/31 05:16:48;;;;;;;12.20;7.63;;;;;;;;;;4945825;28;20218;-76
2022/08/31 05:19:15;;;;;;;11.30;6.87;;;;;;;;;;4941262;28;20580;-76
2022/08/31 05:21:43;;;;;;;10.73;7.33;;;;;;;;;;4942002;28;20210;-77
2022/08/31 05:24:13;;;;;;;12.87;7.00;;;;;;;;;;4946564;28;20210;-76
2022/08/31 05:26:43;;;;;;;12.67;7.03;;;;;;;;;;4943730;28;20329;-76
2022/08/31 05:29:12;;;;;;;13.10;7.33;;;;;;;;;;4942102;28;20674;-76
2022/08/31 05:31:40;;;;;;;11.60;7.43;;;;;;;;;;4943675;28;20309;-77
2022/08/31 05:34:07;;;;;;;12.90;7.73;;;;;;;;;;4941921;28;20210;-76
2022/08/31 05:36:36;;;;;;;13.10;7.70;;;;;;;;;;4943378;28;20320;-75
2022/08/31 05:39:05;;;;;;;12.40;7.60;;;;;;;;;;4960329;28;20226;-75
2022/08/31 05:41:33;;;;;;;14.57;7.53;;;;;;;;;;4963556;28;20619;-76
2022/08/31 05:44:02;;;;;;;14.20;7.23;;;;;;;;;;4948373;28;20345;-77
2022/08/31 05:46:29;;;;;;;12.73;7.80;;;;;;;;;;4945001;28;20788;-76
2022/08/31 05:48:57;;;;;;;16.47;8.30;;;;;;;;;;4952266;28;20559;-77
2022/08/31 05:51:24;;;;;;;12.00;7.67;;;;;;;;;;4944765;28;20206;-77
2022/08/31 05:53:51;;;;;;;12.17;7.37;;;;;;;;;;4950879;28;20267;-78
2022/08/31 05:56:20;;;;;;;10.50;7.33;;;;;;;;;;4954969;28;20321;-75
2022/08/31 05:58:49;;;;;;;12.20;7.07;;;;;;;;;;4946925;28;20212;-77
2022/08/31 06:01:17;;;;;;;12.00;7.87;;;;;;;;;;4946357;28;20561;-77
2022/08/31 06:03:44;;;;;;;13.37;6.40;;;;;;;;;;4949845;28;20226;-77
2022/08/31 06:06:12;;;;;;;9.60;5.80;;;;;;;;;;4951489;28;20228;-77
2022/08/31 06:08:40;;;;;;;9.10;4.70;;;;;;;;;;4948925;28;20565;-77
2022/08/31 06:11:13;;;;;;;5.43;3.60;;;;;;;;;;4948425;29;20202;-76
2022/08/31 06:13:40;;;;;;;5.57;3.53;;;;;;;;;;4947724;29;20329;-76
2022/08/31 06:16:08;;;;;;;10.87;3.83;;;;;;;;;;4948283;28;20229;-76
2022/08/31 06:18:37;;;;;;;4.57;2.93;;;;;;;;;;4949628;29;20297;-77
2022/08/31 06:21:08;;;;;;;8.73;4.00;;;;;;;;;;4949026;29;20214;-76
2022/08/31 06:23:36;;;;;;;6.20;3.40;;;;;;;;;;4947692;28;20602;-77
2022/08/31 06:26:04;;;;;;;9.67;3.87;;;;;;;;;;4950137;28;20222;-75
2022/08/31 06:28:32;;;;;;;13.10;3.67;;;;;;;;;;4946512;28;20218;-77
2022/08/31 06:31:00;;;;;;;6.03;4.10;;;;;;;;;;4948363;29;20665;-77
2022/08/31 06:33:29;;;;;;;5.80;3.70;;;;;;;;;;4947689;29;20202;-77
2022/08/31 06:35:56;;;;;;;10.97;3.70;;;;;;;;;;4946686;28;20226;-77
2022/08/31 06:38:23;;;;;;;5.43;3.23;;;;;;;;;;4948677;28;20571;-77
2022/08/31 06:40:50;;;;;;;4.50;3.00;;;;;;;;;;4945531;28;20313;-77
2022/08/31 06:43:18;;;;;;;5.23;3.43;;;;;;;;;;4948957;28;20254;-77
2022/08/31 06:45:45;;;;;;;5.00;3.37;;;;;;;;;;4948442;28;20213;-76
2022/08/31 06:48:12;;;;;;;5.03;3.43;;;;;;;;;;4948448;28;20232;-77
2022/08/31 06:50:40;;;;;;;8.27;3.23;;;;;;;;;;4945418;28;20222;-77
2022/08/31 06:53:08;;;;;;;9.33;3.10;;;;;;;;;;4951327;28;20201;-76
2022/08/31 06:55:35;;;;;;;4.93;2.70;;;;;;;;;;4948014;28;20211;-77
2022/08/31 06:58:03;;;;;;;6.37;3.30;;;;;;;;;;4948608;28;20573;-77
2022/08/31 07:00:32;;;;;;;6.80;3.27;;;;;;;;;;4946383;28;20194;-76
2022/08/31 07:03:21;;;;;;;3.83;2.83;;;;;;;;;;4947777;28;20245;-77
2022/08/31 07:05:49;;;;;;;9.43;3.10;;;;;;;;;;4940800;28;20238;-76
2022/08/31 07:08:16;;;;;;;6.73;3.10;;;;;;;;;;4944076;28;20207;-77
2022/08/31 07:10:43;;;;;;;6.90;2.93;;;;;;;;;;4947698;28;20214;-77
2022/08/31 07:13:10;;;;;;;8.07;2.97;;;;;;;;;;4946463;28;20210;-76
2022/08/31 07:15:38;;;;;;;9.00;3.10;;;;;;;;;;4947722;28;20690;-77
2022/08/31 07:18:05;;;;;;;4.80;3.10;;;;;;;;;;4950470;28;20229;-77
2022/08/31 07:20:32;;;;;;;8.47;3.10;;;;;;;;;;4949314;28;20692;-77
2022/08/31 07:23:01;;;;;;;5.27;3.07;;;;;;;;;;4946968;28;20232;-76
2022/08/31 07:25:28;;;;;;;7.17;3.53;;;;;;;;;;4939645;28;20217;-77
2022/08/31 07:27:55;;;;;;;4.43;3.03;;;;;;;;;;4945957;28;20665;-77
2022/08/31 07:30:33;;;;;;;5.10;3.20;;;;;;;;;;4940228;28;20761;-77
2022/08/31 07:33:05;;;;;;;6.73;2.80;;;;;;;;;;4945174;28;20214;-76
2022/08/31 07:35:32;;;;;;;4.80;3.20;;;;;;;;;;4943500;28;20299;-77
2022/08/31 07:43:32;;;;;;;4.97;2.70;;;;;;;;;;4946217;29;20253;-77
2022/08/31 07:46:01;;;;;;;4.53;2.53;;;;;;;;;;4944247;29;20309;-76
2022/08/31 07:48:28;;;;;;;5.30;3.00;;;;;;;;;;4947439;29;20216;-76
2022/08/31 07:50:56;;;;;;;6.67;3.00;;;;;;;;;;4946838;28;20297;-76
2022/08/31 07:53:27;;;;;;;5.87;2.97;;;;;;;;;;4949904;28;20205;-76
2022/08/31 07:55:59;;;;;;;4.47;2.90;;;;;;;;;;4945624;28;20221;-77
2022/08/31 07:58:26;;;;;;;5.07;2.50;;;;;;;;;;4946435;28;20209;-77
2022/08/31 08:00:54;;;;;;;6.83;2.73;;;;;;;;;;4948393;28;20211;-77
2022/08/31 08:03:21;;;;;;;4.40;2.73;;;;;;;;;;4950072;28;20329;-77
2022/08/31 08:05:49;;;;;;;6.87;3.00;;;;;;;;;;4949627;28;20266;-77
2022/08/31 08:08:25;;;;;;;6.23;3.13;;;;;;;;;;4949684;28;20767;-76
2022/08/31 08:10:53;;;;;;;4.97;2.93;;;;;;;;;;4946767;28;20206;-76
2022/08/31 08:13:22;;;;;;;7.03;3.10;;;;;;;;;;4943153;28;20206;-77
2022/08/31 08:15:50;;;;;;;4.87;3.00;;;;;;;;;;4941325;28;20233;-77
2022/08/31 08:18:17;;;;;;;5.67;2.90;;;;;;;;;;4950844;28;20202;-76
2022/08/31 08:20:44;;;;;;;4.33;2.80;;;;;;;;;;4951740;28;20270;-76
2022/08/31 08:23:17;;;;;;;5.27;2.70;;;;;;;;;;4965139;28;20254;-75
2022/08/31 08:25:47;;;;;;;3.97;2.50;;;;;;;;;;4951506;28;20666;-76
2022/08/31 08:28:18;;;;;;;5.87;2.77;;;;;;;;;;4946421;28;20564;-76
2022/08/31 08:30:46;;;;;;;3.90;2.90;;;;;;;;;;4948914;28;20228;-76
2022/08/31 08:33:16;;;;;;;4.90;3.00;;;;;;;;;;4944113;28;20285;-76
2022/08/31 08:35:44;;;;;;;7.40;3.10;;;;;;;;;;4944621;28;20568;-77
2022/08/31 08:38:11;;;;;;;5.40;2.80;;;;;;;;;;4944651;28;20242;-76
2022/08/31 08:40:41;;;;;;;4.53;2.87;;;;;;;;;;4948165;28;20724;-76
2022/08/31 08:43:10;;;;;;;6.43;2.77;;;;;;;;;;4945571;28;20230;-76
2022/08/31 08:45:39;;;;;;;3.77;2.60;;;;;;;;;;4945359;29;20213;-77
2022/08/31 08:48:10;;;;;;;5.77;3.17;;;;;;;;;;4948321;28;20292;-76
2022/08/31 08:50:39;;;;;;;5.60;2.90;;;;;;;;;;4942611;28;20200;-76
2022/08/31 08:53:09;;;;;;;5.90;2.70;;;;;;;;;;4940192;28;20701;-76
2022/08/31 08:55:38;;;;;;;5.00;3.00;;;;;;;;;;4943053;28;20211;-76
2022/08/31 09:00:56;;;;;;;5.13;2.63;;;;;;;;;;4943291;28;20615;-77
2022/08/31 09:03:32;;;;;;;5.47;2.70;;;;;;;;;;4947671;28;20238;-76
2022/08/31 09:06:05;;;;;;;6.27;2.67;;;;;;;;;;4946715;28;20217;-77
2022/08/31 09:08:47;;;;;;;5.53;2.77;;;;;;;;;;4945536;28;20223;-75
2022/08/31 09:11:18;;;;;;;4.93;2.50;;;;;;;;;;4934049;28;20210;-76
2022/08/31 09:13:56;;;;;;;8.13;3.00;;;;;;;;;;4946568;28;20209;-77
2022/08/31 09:16:37;;;;;;;4.63;2.87;;;;;;;;;;4956929;28;20221;-76
2022/08/31 09:19:07;;;;;;;3.43;2.43;;;;;;;;;;4941838;28;20791;-76
2022/08/31 09:21:39;;;;;;;5.77;2.80;;;;;;;;;;4949593;28;20580;-76
2022/08/31 09:24:07;;;;;;;6.73;2.73;;;;;;;;;;4949621;28;20230;-77
2022/08/31 09:26:48;;;;;;;5.67;2.70;;;;;;;;;;4941076;28;20578;-76
2022/08/31 09:29:20;;;;;;;4.17;2.73;;;;;;;;;;4949286;28;20206;-76
2022/08/31 09:31:49;;;;;;;5.40;2.70;;;;;;;;;;4948207;28;21888;-76
2022/08/31 09:34:28;;;;;;;5.07;2.63;;;;;;;;;;4955300;28;20199;-76
2022/08/31 09:37:14;;;;;;;4.53;2.87;;;;;;;;;;4954826;28;20716;-76
2022/08/31 09:39:47;;;;;;;5.80;2.77;;;;;;;;;;4944459;28;20214;-76
2022/08/31 09:42:27;;;;;;;5.90;2.80;;;;;;;;;;4950875;28;20198;-74
2022/08/31 09:44:57;;;;;;;4.17;2.60;;;;;;;;;;4952896;28;20628;-75
2022/08/31 09:47:51;;;;;;;5.07;2.60;;;;;;;;;;4947287;28;20724;-75
2022/08/31 09:50:29;;;;;;;4.17;2.80;;;;;;;;;;4944595;28;20297;-76
2022/08/31 09:56:04;;;;;;;3.47;2.53;;;;;;;;;;4948936;28;20233;-76
2022/08/31 09:58:32;;;;;;;4.17;2.53;;;;;;;;;;4951159;28;20288;-75
2022/08/31 10:01:11;;;;;;;6.13;2.67;;;;;;;;;;4948359;28;20212;-75
2022/08/31 10:03:44;;;;;;;5.60;2.90;;;;;;;;;;4958466;28;21072;-75
2022/08/31 10:06:25;;;;;;;5.07;3.20;;;;;;;;;;4947157;29;20246;-77
2022/08/31 10:08:58;;;;;;;6.17;2.87;;;;;;;;;;4948912;28;20263;-76
2022/08/31 10:11:27;;;;;;;4.50;2.93;;;;;;;;;;4949540;28;20215;-77
2022/08/31 10:14:02;;;;;;;3.50;2.57;;;;;;;;;;4950065;28;20728;-76
2022/08/31 10:16:33;;;;;;;4.03;2.67;;;;;;;;;;4951521;28;20233;-76
2022/08/31 10:19:03;;;;;;;3.67;2.77;;;;;;;;;;4943246;28;20221;-77
2022/08/31 10:21:37;;;;;;;4.17;2.40;;;;;;;;;;4954224;28;20222;-76
2022/08/31 10:24:19;;;;;;;5.37;2.80;;;;;;;;;;4950600;29;20326;-76
2022/08/31 10:26:48;;;;;;;6.13;2.80;;;;;;;;;;4948335;28;20318;-76
2022/08/31 10:29:18;;;;;;;7.90;2.40;;;;;;;;;;4946492;28;20216;-76
2022/08/31 10:31:48;;;;;;;4.20;2.60;;;;;;;;;;4948170;28;20669;-76
2022/08/31 10:37:07;;;;;;;5.43;2.50;;;;;;;;;;4946649;28;20269;-75
2022/08/31 10:39:37;;;;;;;3.17;2.37;;;;;;;;;;4946841;29;20202;-76
2022/08/31 10:42:07;;;;;;;5.50;2.60;;;;;;;;;;4944313;29;20238;-76
2022/08/31 10:44:38;;;;;;;3.57;2.80;;;;;;;;;;4948326;29;20225;-76
2022/08/31 10:47:06;;;;;;;4.47;2.70;;;;;;;;;;4946628;28;20234;-76
2022/08/31 10:49:34;;;;;;;5.23;2.40;;;;;;;;;;4946717;29;20207;-77
2022/08/31 10:52:06;;;;;;;3.83;2.70;;;;;;;;;;4943820;29;20685;-77
2022/08/31 10:54:40;;;;;;;4.67;2.30;;;;;;;;;;4947498;28;20199;-77
2022/08/31 10:57:15;;;;;;;4.37;2.27;;;;;;;;;;4948325;28;20229;-76
2022/08/31 10:59:44;;;;;;;3.60;2.47;;;;;;;;;;4945295;29;20213;-75
2022/08/31 11:02:41;;;;;;;4.47;2.40;;;;;;;;;;4946944;28;20207;-77
2022/08/31 11:05:17;;;;;;;4.07;2.30;;;;;;;;;;4908162;29;20758;-75
2022/08/31 11:07:48;;;;;;;4.77;2.57;;;;;;;;;;4940584;28;20717;-75
2022/08/31 11:10:21;;;;;;;4.23;2.33;;;;;;;;;;4946477;28;20207;-76
2022/08/31 11:12:50;;;;;;;11.47;2.60;;;;;;;;;;4949939;28;20750;-75
2022/08/31 11:15:27;;;;;;;4.83;2.50;;;;;;;;;;4946070;28;20198;-76
2022/08/31 11:18:08;;;;;;;5.83;2.73;;;;;;;;;;4951007;29;20234;-75
2022/08/31 11:20:50;;;;;;;5.13;2.50;;;;;;;;;;4944797;29;20668;-75
2022/08/31 11:23:37;;;;;;;5.13;2.63;;;;;;;;;;4945270;28;20214;-76
2022/08/31 11:26:33;;;;;;;5.23;2.93;;;;;;;;;;4944999;29;20219;-75
2022/08/31 11:29:02;;;;;;;5.17;2.60;;;;;;;;;;4949816;29;20202;-76
2022/08/31 11:31:30;;;;;;;3.53;2.50;;;;;;;;;;4945899;28;20230;-74
2022/08/31 11:33:59;;;;;;;5.00;2.80;;;;;;;;;;4946242;28;20808;-76
2022/08/31 11:36:48;;;;;;;4.50;2.63;;;;;;;;;;4949277;28;20230;-76
2022/08/31 11:39:20;;;;;;;6.67;2.63;;;;;;;;;;4951180;28;20565;-76
2022/08/31 11:41:49;;;;;;;3.47;2.30;;;;;;;;;;4947306;28;20282;-76
2022/08/31 11:44:35;;;;;;;5.20;2.30;;;;;;;;;;4948155;29;20221;-75
2022/08/31 11:47:05;;;;;;;6.73;2.80;;;;;;;;;;4947643;29;20781;-76
2022/08/31 11:49:45;;;;;;;6.00;2.30;;;;;;;;;;4949567;28;20202;-75
2022/08/31 11:52:14;;;;;;;6.27;2.00;;;;;;;;;;4949137;29;20233;-75
2022/08/31 11:54:56;;;;;;;2.80;2.27;;;;;;;;;;4949544;29;20570;-76
2022/08/31 11:57:26;;;;;;;5.90;2.43;;;;;;;;;;4947691;28;20230;-76
2022/08/31 11:59:54;;;;;;;3.90;2.57;;;;;;;;;;4943995;29;20297;-76
2022/08/31 12:02:42;;;;;;;2.50;2.13;;;;;;;;;;4947947;28;20202;-75
2022/08/31 12:05:09;;;;;;;4.33;2.50;;;;;;;;;;4948434;28;20234;-75
2022/08/31 12:07:41;;;;;;;3.30;2.50;;;;;;;;;;4944726;28;20223;-75
2022/08/31 12:10:24;;;;;;;5.17;2.43;;;;;;;;;;4942061;28;20211;-76
2022/08/31 12:13:29;;;;;;;5.07;2.47;;;;;;;;;;4952081;28;20213;-76
2022/08/31 12:16:17;;;;;;;3.37;2.87;;;;;;;;;;4946791;29;20305;-76
2022/08/31 12:18:52;;;;;;;3.97;2.50;;;;;;;;;;4949935;28;20206;-76
2022/08/31 12:24:15;;;;;;;3.53;2.60;;;;;;;;;;4949305;29;20229;-75
2022/08/31 12:27:00;;;;;;;3.53;2.53;;;;;;;;;;4947383;28;20320;-75
2022/08/31 12:29:29;;;;;;;3.40;2.70;;;;;;;;;;4948864;28;20302;-76
2022/08/31 12:32:01;;;;;;;4.63;2.70;;;;;;;;;;4941354;29;20210;-75
2022/08/31 12:34:30;;;;;;;4.83;2.63;;;;;;;;;;4945641;28;20308;-76
2022/08/31 12:36:57;;;;;;;4.50;3.13;;;;;;;;;;4949725;28;20230;-75
2022/08/31 12:39:26;;;;;;;3.77;3.07;;;;;;;;;;4943548;28;20226;-75
2022/08/31 12:41:55;;;;;;;3.53;2.67;;;;;;;;;;4940611;28;20226;-75
2022/08/31 12:44:23;;;;;;;3.47;2.60;;;;;;;;;;4942061;28;20305;-75
2022/08/31 12:47:02;;;;;;;4.10;2.40;;;;;;;;;;4937998;28;20245;-75
2022/08/31 12:49:42;;;;;;;5.27;2.90;;;;;;;;;;4945020;29;20218;-74
2022/08/31 12:52:16;;;;;;;3.17;2.43;;;;;;;;;;4941560;29;20306;-76
2022/08/31 12:55:11;;;;;;;4.77;2.73;;;;;;;;;;4939225;28;20237;-74
2022/08/31 12:57:53;;;;;;;4.83;2.30;;;;;;;;;;4939450;28;20232;-76
2022/08/31 13:00:24;;;;;;;3.80;2.40;;;;;;;;;;4946518;28;20704;-74
2022/08/31 13:02:53;;;;;;;6.57;2.57;;;;;;;;;;4948172;28;20207;-76
2022/08/31 13:05:23;;;;;;;3.73;2.67;;;;;;;;;;4944723;28;20222;-76
2022/08/31 13:07:51;;;;;;;3.87;2.40;;;;;;;;;;4948047;28;20218;-77
2022/08/31 13:10:28;;;;;;;3.27;2.40;;;;;;;;;;4946681;28;20213;-76
2022/08/31 13:12:57;;;;;;;4.47;2.80;;;;;;;;;;4949352;28;20217;-76
2022/08/31 13:15:25;;;;;;;3.30;2.20;;;;;;;;;;4947571;28;20203;-76
2022/08/31 13:17:55;;;;;;;3.77;2.37;;;;;;;;;;4943731;28;20236;-75
2022/08/31 13:20:28;;;;;;;6.13;1.70;;;;;;;;;;4940854;28;20202;-75
2022/08/31 13:22:56;;;;;;;2.67;1.90;;;;;;;;;;4939008;28;20329;-77
2022/08/31 13:25:34;;;;;;;3.10;2.20;;;;;;;;;;4946038;28;20236;-75
2022/08/31 13:28:02;;;;;;;3.67;2.60;;;;;;;;;;4944307;28;20221;-76
2022/08/31 13:30:37;;;;;;;2.87;2.20;;;;;;;;;;4942142;28;20654;-75
2022/08/31 13:33:20;;;;;;;5.93;2.50;;;;;;;;;;4945508;28;20226;-76
2022/08/31 13:35:49;;;;;;;4.20;2.67;;;;;;;;;;4945097;28;20225;-75
2022/08/31 13:38:22;;;;;;;5.87;3.10;;;;;;;;;;4939679;28;20230;-75
2022/08/31 13:40:51;;;;;;;3.63;2.87;;;;;;;;;;4945261;28;20735;-75
2022/08/31 13:43:26;;;;;;;3.50;2.57;;;;;;;;;;4948277;28;20684;-75
2022/08/31 13:45:56;;;;;;;5.53;2.90;;;;;;;;;;4947288;28;20237;-75
2022/08/31 13:48:29;;;;;;;3.83;2.67;;;;;;;;;;4937534;28;20345;-74
2022/08/31 13:51:01;;;;;;;4.30;2.97;;;;;;;;;;4939680;28;20753;-75
2022/08/31 13:53:38;;;;;;;4.27;2.80;;;;;;;;;;4944277;28;20206;-74
2022/08/31 13:56:53;;;;;;;3.80;2.57;;;;;;;;;;4946500;28;20221;-75
2022/08/31 13:59:16;;;;;;;9.50;3.13;;;;;;;;;;4941956;28;20210;-74
2022/08/31 14:01:48;;;;;;;5.67;2.73;;;;;;;;;;4943746;28;20261;-76
2022/08/31 14:04:42;;;;;;;7.00;3.23;;;;;;;;;;4951140;28;20218;-75
2022/08/31 14:07:15;;;;;;;7.23;2.90;;;;;;;;;;4946867;28;20228;-76
2022/08/31 14:09:44;;;;;;;5.27;2.90;;;;;;;;;;4944943;28;20214;-75
2022/08/31 14:12:20;;;;;;;4.07;3.00;;;;;;;;;;4950631;28;20209;-74
2022/08/31 14:14:50;;;;;;;4.67;3.10;;;;;;;;;;4947019;28;20245;-75
2022/08/31 14:17:17;;;;;;;5.70;2.90;;;;;;;;;;4945087;28;20288;-75
2022/08/31 14:19:45;;;;;;;5.20;3.13;;;;;;;;;;4950813;28;20211;-75
2022/08/31 14:22:25;;;;;;;6.77;3.47;;;;;;;;;;4947874;28;20222;-76
2022/08/31 14:24:54;;;;;;;5.00;2.70;;;;;;;;;;4950642;28;20321;-75
2022/08/31 14:27:21;;;;;;;4.57;3.00;;;;;;;;;;4949187;28;20222;-74
2022/08/31 14:29:48;;;;;;;6.47;2.97;;;;;;;;;;4945950;28;20211;-75
2022/08/31 14:32:17;;;;;;;4.63;3.00;;;;;;;;;;4943121;28;20225;-75
2022/08/31 14:34:47;;;;;;;5.30;2.97;;;;;;;;;;4949267;28;20204;-73
2022/08/31 14:37:18;;;;;;;2.93;2.23;;;;;;;;;;4947562;28;20229;-74
2022/08/31 14:39:47;;;;;;;4.40;2.80;;;;;;;;;;4947734;28;20202;-77
2022/08/31 14:42:17;;;;;;;7.53;2.60;;;;;;;;;;4942377;28;20207;-74
2022/08/31 14:44:47;;;;;;;3.97;2.67;;;;;;;;;;4948719;28;20305;-76
2022/08/31 14:47:14;;;;;;;4.57;3.00;;;;;;;;;;4949045;28;20238;-76
2022/08/31 14:49:42;;;;;;;5.37;3.07;;;;;;;;;;4946633;28;20206;-76
2022/08/31 14:52:11;;;;;;;5.70;3.03;;;;;;;;;;4942696;28;20214;-76
2022/08/31 14:54:39;;;;;;;8.27;3.43;;;;;;;;;;4949330;29;20214;-73
2022/08/31 14:57:10;;;;;;;6.57;3.10;;;;;;;;;;4950568;28;20240;-73
2022/08/31 14:59:39;;;;;;;11.83;3.40;;;;;;;;;;4947389;28;20206;-74
2022/08/31 15:02:08;;;;;;;8.10;3.10;;;;;;;;;;4944647;28;20241;-74
2022/08/31 15:04:36;;;;;;;20.77;3.40;;;;;;;;;;4952752;28;20701;-74
2022/08/31 15:07:04;;;;;;;23.40;3.73;;;;;;;;;;4948899;28;20229;-74
2022/08/31 15:09:31;;;;;;;6.20;2.93;;;;;;;;;;4946231;28;20232;-73
2022/08/31 15:12:00;;;;;;;20.67;3.73;;;;;;;;;;4945305;28;20311;-72
2022/08/31 15:14:29;;;;;;;4.97;3.13;;;;;;;;;;4946980;28;20213;-73
2022/08/31 15:17:02;;;;;;;5.93;3.13;;;;;;;;;;4943543;28;20244;-73
2022/08/31 15:19:29;;;;;;;6.05;3.30;;;;;;;;;;4945020;28;20553;-75
2022/08/31 15:21:59;;;;;;;5.93;2.97;;;;;;;;;;4951659;28;20250;-75